Time;durP1;ratioP1;P1;durP2;ratioP2;P2;SDS_P1;SDS_P2;PMS_P1;PMS_P2;Temp;Humidity;BMP_temperature;BMP_pressure;BME280_temperature;BME280_humidity;BME280_pressure;Samples;Min_cycle;Max_cycle;Signal;HPM_P1;HPM_P2
2022/07/08 00:00:17;;;;;;;4.18;1.52;;;15.00;99.90;;;;;;6237314;22;20414;-96
2022/07/08 00:02:43;;;;;;;3.35;0.45;;;15.00;99.90;;;;;;6239053;22;20022;-94
2022/07/08 00:05:38;;;;;;;2.95;0.50;;;15.00;99.90;;;;;;6229473;22;20094;-94
2022/07/08 00:08:04;;;;;;;2.60;0.40;;;14.90;99.90;;;;;;6178917;22;20051;-93
2022/07/08 00:10:31;;;;;;;4.78;0.40;;;14.90;99.90;;;;;;6229539;22;20038;-93
2022/07/08 00:13:47;;;;;;;1.20;0.28;;;14.80;99.90;;;;;;6255566;22;20019;-93
2022/07/08 00:16:13;;;;;;;1.85;0.40;;;14.80;99.90;;;;;;6249424;22;20030;-93
2022/07/08 00:19:14;;;;;;;1.92;0.40;;;14.90;99.90;;;;;;6229362;22;20012;-93
2022/07/08 00:21:44;;;;;;;4.15;0.40;;;14.90;99.90;;;;;;6214271;22;20023;-93
2022/07/08 00:24:13;;;;;;;1.50;0.30;;;14.80;99.90;;;;;;6229605;22;20054;-94
2022/07/08 00:26:40;;;;;;;1.50;0.50;;;14.80;99.90;;;;;;6229000;22;20008;-95
2022/07/08 00:29:06;;;;;;;;;;;14.80;99.90;;;;;;6230271;22;20016;-94
2022/07/08 00:31:32;;;;;;;1.65;0.40;;;14.80;99.90;;;;;;6241475;22;19937;-91
2022/07/08 00:39:32;;;;;;;1.35;0.38;;;14.80;99.90;;;;;;6189446;22;20021;-96
2022/07/08 00:41:58;;;;;;;2.03;0.40;;;14.80;99.90;;;;;;6157877;23;20320;-94
2022/07/08 00:45:27;;;;;;;2.97;0.50;;;14.70;99.90;;;;;;6143450;23;20106;-93
2022/07/08 00:47:53;;;;;;;3.47;0.38;;;14.70;99.90;;;;;;6141569;23;20018;-93
2022/07/08 00:50:28;;;;;;;2.25;0.40;;;14.70;99.90;;;;;;6141326;23;20049;-94
2022/07/08 00:52:54;;;;;;;2.58;0.40;;;14.70;99.90;;;;;;6141420;23;20019;-93
2022/07/08 00:55:30;;;;;;;;;;;;;;;;;;;;;
2022/07/08 00:57:56;;;;;;;2.10;0.40;;;14.60;99.90;;;;;;6166273;23;20022;-94
2022/07/08 03:00:28;;;;;;;2.25;0.60;;;13.40;99.90;;;;;;6242988;22;20028;-92
2022/07/08 03:02:55;;;;;;;1.50;0.50;;;13.40;99.90;;;;;;6191339;23;20074;-93
2022/07/08 03:05:55;;;;;;;3.22;0.65;;;13.30;99.90;;;;;;6222098;23;20023;-92
2022/07/08 03:08:20;;;;;;;2.55;0.60;;;13.30;99.90;;;;;;6220700;23;20020;-91
2022/07/08 03:10:46;;;;;;;3.65;0.60;;;13.30;99.90;;;;;;6220456;23;20024;-91
2022/07/08 03:13:12;;;;;;;2.78;0.50;;;13.20;99.90;;;;;;6220227;23;20043;-91
2022/07/08 03:15:38;;;;;;;1.45;0.60;;;13.30;99.90;;;;;;6220302;23;20013;-91
2022/07/08 03:18:03;;;;;;;1.80;0.50;;;13.20;99.90;;;;;;6220597;23;20012;-92
2022/07/08 03:24:53;;;;;;;1.27;0.45;;;13.20;99.90;;;;;;6247489;23;20015;-92
2022/07/08 03:27:22;;;;;;;3.22;0.50;;;13.20;99.90;;;;;;6245711;23;20095;-92
2022/07/08 03:47:53;;;;;;;1.42;0.50;;;13.00;99.90;;;;;;6204858;23;20032;-91
2022/07/08 03:50:20;;;;;;;2.22;0.63;;;13.00;99.90;;;;;;6170883;23;20019;-94
2022/07/08 03:52:46;;;;;;;2.47;0.57;;;12.90;99.90;;;;;;6170663;23;20130;-94
2022/07/08 03:55:12;;;;;;;3.58;0.57;;;12.90;99.90;;;;;;6170722;23;20046;-93
2022/07/08 06:27:49;;;;;;;;;;;;;;;;;;;;;
2022/07/08 06:30:32;;;;;;;2.75;0.60;;;15.70;99.90;;;;;;6253375;22;20500;-93
2022/07/08 06:33:02;;;;;;;2.75;0.60;;;15.70;99.90;;;;;;6227474;22;20471;-91
2022/07/08 06:45:49;;;;;;;2.45;0.65;;;16.10;99.90;;;;;;6149894;23;20044;-94
2022/07/08 06:48:15;;;;;;;;;;;16.10;99.90;;;;;;6172177;23;20022;-92
2022/07/08 06:50:42;;;;;;;1.65;0.50;;;16.20;99.90;;;;;;6170544;23;19976;-89
2022/07/08 07:00:54;;;;;;;2.65;0.68;;;16.40;99.90;;;;;;6275538;22;20031;-89
2022/07/08 07:03:19;;;;;;;2.05;0.38;;;16.50;99.90;;;;;;6223339;22;20024;-90
2022/07/08 07:05:48;;;;;;;1.20;0.43;;;16.50;99.90;;;;;;6225196;22;20008;-92
2022/07/08 07:10:49;;;;;;;3.50;0.52;;;16.50;99.90;;;;;;6216180;23;20446;-90
2022/07/08 07:13:15;;;;;;;2.30;0.70;;;16.50;99.90;;;;;;6164683;23;20016;-91
2022/07/08 07:15:40;;;;;;;3.03;0.57;;;16.50;99.90;;;;;;6190020;23;20106;-89
2022/07/08 07:18:08;;;;;;;2.08;0.50;;;16.50;99.90;;;;;;6204502;23;20075;-90
2022/07/08 07:21:35;;;;;;;;;;;;;;;;;;;;;
2022/07/08 07:24:07;;;;;;;1.40;0.47;;;16.50;99.90;;;;;;6190051;23;20350;-91
2022/07/08 07:26:33;;;;;;;1.17;0.45;;;16.50;99.90;;;;;;6190120;23;20016;-90
2022/07/08 07:28:59;;;;;;;3.88;0.57;;;16.60;99.90;;;;;;6188831;23;20016;-90
2022/07/08 07:31:24;;;;;;;1.90;0.43;;;16.60;99.90;;;;;;6190010;23;20023;-89
2022/07/08 07:33:50;;;;;;;2.45;0.60;;;16.60;99.90;;;;;;6190120;23;20016;-89
2022/07/08 07:36:16;;;;;;;2.20;0.60;;;16.60;99.90;;;;;;6164372;23;20048;-91
2022/07/08 07:38:41;;;;;;;1.23;0.50;;;16.70;99.90;;;;;;6189530;23;20100;-89
2022/07/08 07:41:07;;;;;;;1.48;0.52;;;16.70;99.90;;;;;;6190097;23;20369;-90
2022/07/08 07:43:33;;;;;;;0.85;0.40;;;16.70;99.90;;;;;;6191053;23;20041;-91
2022/07/08 07:45:59;;;;;;;2.53;0.57;;;16.70;99.90;;;;;;6190353;23;20016;-91
2022/07/08 07:52:06;;;;;;;2.22;0.70;;;16.70;99.90;;;;;;6149442;23;20465;-90
2022/07/08 07:54:34;;;;;;;1.85;0.60;;;16.80;99.90;;;;;;6189749;23;20016;-90
2022/07/08 07:57:05;;;;;;;2.67;0.63;;;16.80;99.90;;;;;;6164547;23;20017;-88
2022/07/08 07:59:46;;;;;;;2.15;0.60;;;16.80;99.90;;;;;;6188186;23;20024;-88
2022/07/08 08:02:12;;;;;;;3.45;0.63;;;16.80;99.90;;;;;;6189715;23;20020;-90
2022/07/08 08:04:37;;;;;;;2.58;0.60;;;16.80;99.90;;;;;;6164913;23;20016;-90
2022/07/08 08:07:03;;;;;;;3.03;0.75;;;16.80;99.90;;;;;;6189713;23;20028;-89
2022/07/08 08:09:29;;;;;;;3.53;0.70;;;16.90;99.90;;;;;;6164484;23;20021;-91
2022/07/08 08:17:45;;;;;;;3.60;0.80;;;17.00;99.90;;;;;;6246295;23;20020;-89
2022/07/08 08:20:22;;;;;;;2.45;0.52;;;17.00;99.90;;;;;;6194846;23;20059;-90
2022/07/08 08:22:47;;;;;;;2.70;0.50;;;17.00;99.90;;;;;;6194774;23;20113;-90
2022/07/08 08:25:13;;;;;;;1.48;0.60;;;17.10;99.90;;;;;;6194407;23;20020;-89
2022/07/08 08:27:42;;;;;;;2.15;0.40;;;17.10;99.90;;;;;;6194921;23;20014;-91
2022/07/08 09:03:48;;;;;;;2.13;0.60;;;17.30;99.90;;;;;;6215432;23;20021;-91
2022/07/08 09:39:59;;;;;;;3.08;0.85;;;18.10;99.90;;;;;;6217230;23;20057;-91
2022/07/08 13:16:10;;;;;;;2.88;0.90;;;20.50;99.90;;;;;;6276786;22;20452;-92
2022/07/08 14:16:00;;;;;;;5.05;1.50;;;21.00;99.90;;;;;;6184253;22;20028;-91
2022/07/08 14:18:26;;;;;;;2.80;1.10;;;20.90;99.90;;;;;;6152403;23;20063;-90
2022/07/08 14:20:52;;;;;;;;;;;20.90;99.90;;;;;;6163937;23;20066;-90
2022/07/08 14:23:17;;;;;;;4.35;1.10;;;20.80;99.90;;;;;;6163528;23;20333;-90
2022/07/08 14:25:46;;;;;;;3.85;1.20;;;20.80;99.90;;;;;;6163765;23;20074;-92
2022/07/08 14:28:14;;;;;;;3.22;1.23;;;20.80;99.90;;;;;;6165305;23;20040;-91
2022/07/08 14:30:39;;;;;;;2.28;1.17;;;20.80;99.90;;;;;;6164455;23;20155;-87
2022/07/08 14:33:05;;;;;;;3.38;1.23;;;20.80;99.90;;;;;;6164897;23;20052;-87
2022/07/08 14:35:31;;;;;;;3.58;1.30;;;20.70;99.90;;;;;;6164909;23;20013;-90
2022/07/08 14:37:59;;;;;;;4.68;1.10;;;20.70;99.90;;;;;;6190283;23;20016;-88
2022/07/08 14:40:25;;;;;;;2.10;1.00;;;20.70;99.90;;;;;;6189742;23;20066;-90
2022/07/08 14:42:51;;;;;;;2.78;1.00;;;20.70;99.90;;;;;;6164855;23;20092;-89
2022/07/08 14:45:16;;;;;;;2.00;0.82;;;20.70;99.90;;;;;;6189608;23;20071;-89
2022/07/08 14:47:42;;;;;;;5.88;1.17;;;20.80;99.90;;;;;;6167015;23;20095;-89
2022/07/08 14:50:08;;;;;;;2.75;1.20;;;20.90;99.90;;;;;;6165660;23;20021;-87
2022/07/08 14:52:34;;;;;;;2.78;1.05;;;21.00;99.90;;;;;;6189470;23;20063;-88
2022/07/08 14:54:59;;;;;;;3.42;1.10;;;21.20;99.90;;;;;;6189485;23;20009;-89
2022/07/08 14:57:25;;;;;;;3.05;1.30;;;21.20;99.90;;;;;;6164786;23;20024;-92
2022/07/08 14:59:51;;;;;;;3.65;1.38;;;21.30;99.90;;;;;;6189486;23;20016;-92
2022/07/08 15:24:29;;;;;;;4.13;1.00;;;21.30;99.90;;;;;;6333913;22;1286038;-88
2022/07/08 15:32:27;;;;;;;1.92;0.60;;;20.90;99.90;;;;;;6346174;22;20034;-87
2022/07/08 15:34:53;;;;;;;1.50;0.73;;;20.90;99.90;;;;;;6319965;22;20011;-89
2022/07/08 15:39:59;;;;;;;2.15;0.77;;;20.90;99.90;;;;;;6327771;22;20015;-87
2022/07/08 15:42:24;;;;;;;2.92;0.50;;;21.00;99.90;;;;;;6316482;22;20474;-89
2022/07/08 15:44:50;;;;;;;2.17;0.60;;;21.00;99.90;;;;;;6288876;22;20043;-89
2022/07/08 15:47:17;;;;;;;1.70;0.65;;;21.00;99.90;;;;;;6263762;22;20015;-89
2022/07/08 15:49:43;;;;;;;7.07;1.80;;;20.90;99.90;;;;;;6263439;22;20086;-92
2022/07/08 15:52:09;;;;;;;2.35;0.95;;;20.90;99.90;;;;;;6316573;22;20104;-87
2022/07/08 15:54:45;;;;;;;2.78;0.93;;;20.80;99.90;;;;;;6289198;22;20089;-89
2022/07/08 15:57:17;;;;;;;2.13;0.90;;;20.80;99.90;;;;;;6264834;22;20015;-91
2022/07/08 15:59:43;;;;;;;4.05;1.00;;;20.80;99.90;;;;;;6289169;22;20022;-89
2022/07/08 16:02:10;;;;;;;1.10;0.57;;;20.70;99.90;;;;;;6289357;22;20026;-96
2022/07/08 16:04:38;;;;;;;;;;;20.70;99.90;;;;;;6263964;22;20015;-87
2022/07/08 16:07:05;;;;;;;2.20;0.70;;;20.70;99.90;;;;;;6263703;22;19915;-89
2022/07/08 16:09:31;;;;;;;3.92;1.17;;;20.60;99.90;;;;;;6263687;22;20023;-88
2022/07/08 16:11:58;;;;;;;2.70;0.80;;;20.60;99.90;;;;;;6264080;22;20015;-90
2022/07/08 16:14:27;;;;;;;2.58;0.63;;;20.60;99.90;;;;;;6263679;22;20486;-88
2022/07/08 16:16:59;;;;;;;1.95;0.65;;;20.60;99.90;;;;;;6263067;22;20332;-89
2022/07/08 16:19:25;;;;;;;2.33;0.93;;;20.60;99.90;;;;;;6263602;22;20023;-88
2022/07/08 16:21:51;;;;;;;2.40;0.55;;;20.60;99.90;;;;;;6288866;22;20068;-87
2022/07/08 16:24:17;;;;;;;3.65;0.85;;;20.50;99.90;;;;;;6260184;22;20015;-88
2022/07/08 16:26:42;;;;;;;1.55;0.70;;;20.50;99.90;;;;;;6261989;22;20007;-87
2022/07/08 16:34:19;;;;;;;2.05;1.13;;;20.50;99.90;;;;;;6376719;22;20025;-92
2022/07/08 16:36:45;;;;;;;1.40;0.60;;;20.50;99.90;;;;;;6375663;22;20018;-89
2022/07/08 16:39:11;;;;;;;2.28;0.65;;;20.50;99.90;;;;;;6402447;22;20048;-87
2022/07/08 16:41:36;;;;;;;2.30;0.70;;;20.50;99.90;;;;;;6375688;22;20054;-91
2022/07/08 16:44:03;;;;;;;3.47;0.80;;;20.50;99.90;;;;;;6375698;22;20010;-90
2022/07/08 16:46:29;;;;;;;1.67;0.80;;;20.40;99.90;;;;;;6402438;22;20022;-89
2022/07/08 16:48:55;;;;;;;2.15;0.50;;;20.40;99.90;;;;;;6375911;22;20131;-89
2022/07/08 16:51:21;;;;;;;2.17;0.98;;;20.40;99.90;;;;;;6375570;22;20046;-91
2022/07/08 16:53:47;;;;;;;1.60;0.60;;;20.40;99.90;;;;;;6375594;22;20014;-91
2022/07/08 16:56:13;;;;;;;;;;;20.40;99.90;;;;;;6376659;22;20016;-91
2022/07/08 16:58:38;;;;;;;2.05;0.80;;;20.40;99.90;;;;;;6408660;22;19988;-88
2022/07/08 17:01:05;;;;;;;2.15;0.70;;;20.30;99.90;;;;;;6391770;22;20043;-91
2022/07/08 17:03:31;;;;;;;3.25;0.65;;;20.30;99.90;;;;;;6402415;22;20335;-91
2022/07/08 17:05:57;;;;;;;;;;;20.30;99.90;;;;;;6376164;22;20018;-91
2022/07/08 17:08:22;;;;;;;3.58;0.70;;;20.30;99.90;;;;;;6375898;22;19920;-90
2022/07/08 17:10:48;;;;;;;4.05;0.75;;;20.30;99.90;;;;;;6402052;22;20065;-93
2022/07/08 17:13:14;;;;;;;1.08;0.60;;;20.30;99.90;;;;;;6401894;22;20063;-90
2022/07/08 17:15:40;;;;;;;2.63;0.80;;;20.30;99.90;;;;;;6375479;22;20021;-92
2022/07/08 17:18:06;;;;;;;3.30;0.85;;;20.30;99.90;;;;;;6401936;22;20426;-89
2022/07/08 17:20:34;;;;;;;1.42;0.70;;;20.30;99.90;;;;;;6375353;22;20014;-91
2022/07/08 17:23:05;;;;;;;3.67;0.82;;;20.20;99.90;;;;;;6375525;22;20074;-90
2022/07/08 17:25:32;;;;;;;1.60;0.60;;;20.20;99.90;;;;;;6375575;22;20010;-93
2022/07/08 17:27:58;;;;;;;1.67;0.70;;;20.20;99.90;;;;;;6375420;22;20082;-91
2022/07/08 17:30:24;;;;;;;2.88;0.93;;;20.20;99.90;;;;;;6375391;22;20358;-91
2022/07/08 17:32:49;;;;;;;3.60;1.08;;;20.20;99.90;;;;;;6375824;22;20022;-91
2022/07/08 17:35:15;;;;;;;8.20;2.22;;;20.20;99.90;;;;;;6377369;22;20013;-90
2022/07/08 17:37:42;;;;;;;1.90;0.80;;;20.10;99.90;;;;;;6395963;22;19998;-93
2022/07/08 17:40:08;;;;;;;2.08;0.70;;;20.10;99.90;;;;;;6381965;22;20013;-92
2022/07/08 17:42:34;;;;;;;3.08;1.33;;;20.10;99.90;;;;;;6402691;22;20010;-91
2022/07/08 17:45:03;;;;;;;1.25;0.47;;;20.00;99.90;;;;;;6374430;22;20069;-93
2022/07/08 17:47:29;;;;;;;4.88;0.82;;;20.00;99.90;;;;;;6401728;22;20014;-90
2022/07/08 17:49:55;;;;;;;1.55;0.68;;;20.10;99.90;;;;;;6401833;22;20431;-93
2022/07/08 17:52:23;;;;;;;1.80;0.60;;;20.00;99.90;;;;;;6375303;22;20016;-96
2022/07/08 17:54:49;;;;;;;2.20;0.85;;;20.00;99.90;;;;;;6372025;22;20040;-90
2022/07/08 17:57:15;;;;;;;10.05;2.92;;;19.90;99.90;;;;;;6375488;22;20494;-92
2022/07/08 17:59:42;;;;;;;18.38;3.60;;;19.90;99.90;;;;;;6374941;22;20014;-91
2022/07/08 18:02:07;;;;;;;14.15;3.50;;;19.80;99.90;;;;;;6375620;22;20025;-89
2022/07/08 18:04:36;;;;;;;28.02;6.70;;;19.80;99.90;;;;;;6374719;22;20006;-92
2022/07/08 18:07:02;;;;;;;9.48;1.95;;;19.80;99.90;;;;;;6375268;22;20074;-89
2022/07/08 18:09:28;;;;;;;5.22;1.13;;;19.80;99.90;;;;;;6401209;22;20012;-91
2022/07/08 18:11:54;;;;;;;12.55;3.08;;;19.70;99.90;;;;;;6374970;22;20406;-92
2022/07/08 18:14:20;;;;;;;2.00;0.60;;;19.70;99.90;;;;;;6401606;22;20013;-91
2022/07/08 18:16:45;;;;;;;4.15;1.00;;;19.60;99.90;;;;;;6375344;22;20089;-90
2022/07/08 18:19:11;;;;;;;5.68;1.42;;;19.60;99.90;;;;;;6406309;22;20067;-90
2022/07/08 18:21:37;;;;;;;2.67;0.80;;;19.50;99.90;;;;;;6375787;22;20010;-94
2022/07/08 18:24:09;;;;;;;1.10;0.50;;;19.50;99.90;;;;;;6375234;22;20443;-92
2022/07/08 18:29:10;;;;;;;1.58;0.60;;;19.40;99.90;;;;;;6321027;22;20030;-91
2022/07/08 18:31:36;;;;;;;4.00;0.60;;;19.40;99.90;;;;;;6255358;22;20019;-93
2022/07/08 18:34:01;;;;;;;1.15;0.50;;;19.30;99.90;;;;;;6255481;22;20349;-92
2022/07/08 18:36:33;;;;;;;2.28;0.50;;;19.30;99.90;;;;;;6255613;22;20160;-90
2022/07/08 18:39:37;;;;;;;1.48;0.40;;;19.20;99.90;;;;;;6254784;22;20047;-91
2022/07/08 18:42:06;;;;;;;2.35;0.68;;;19.30;99.90;;;;;;6255238;22;20074;-93
2022/07/08 18:44:33;;;;;;;1.15;0.50;;;19.20;99.90;;;;;;6281337;22;20381;-93
2022/07/08 18:56:23;;;;;;;1.67;0.60;;;18.90;99.90;;;;;;6351159;22;20025;-89
2022/07/08 19:06:51;;;;;;;2.15;0.55;;;18.80;99.90;;;;;;6369338;22;20022;-87
2022/07/08 19:09:16;;;;;;;3.13;0.55;;;18.80;99.90;;;;;;6342334;22;20018;-88
2022/07/08 19:11:42;;;;;;;3.47;0.70;;;18.80;99.90;;;;;;6340260;22;20451;-90
2022/07/08 19:14:08;;;;;;;2.67;0.57;;;18.70;99.90;;;;;;6368942;22;20402;-90
2022/07/08 19:16:34;;;;;;;2.75;0.57;;;18.70;99.90;;;;;;6342407;22;20099;-90
2022/07/08 19:19:00;;;;;;;3.13;0.70;;;18.70;99.90;;;;;;6343280;22;20093;-88
2022/07/08 19:21:25;;;;;;;2.45;0.88;;;18.60;99.90;;;;;;6343070;22;20053;-89
2022/07/08 19:23:51;;;;;;;4.38;0.95;;;18.60;99.90;;;;;;6343178;22;20022;-90
2022/07/08 19:26:17;;;;;;;3.28;0.90;;;18.60;99.90;;;;;;6343164;22;20435;-90
2022/07/08 19:28:43;;;;;;;2.53;0.88;;;18.50;99.90;;;;;;6342994;22;20018;-91
2022/07/08 19:31:08;;;;;;;2.50;0.98;;;18.50;99.90;;;;;;6342887;22;20015;-92
2022/07/08 19:33:34;;;;;;;2.15;0.88;;;18.50;99.90;;;;;;6342860;22;20019;-90
2022/07/08 19:36:00;;;;;;;1.95;0.60;;;18.50;99.90;;;;;;6342789;22;20045;-90
2022/07/08 19:38:25;;;;;;;2.20;1.00;;;18.40;99.90;;;;;;6342913;22;20071;-90
2022/07/08 19:40:51;;;;;;;3.28;0.90;;;18.40;99.90;;;;;;6342772;22;20007;-91
2022/07/08 19:43:17;;;;;;;2.95;1.40;;;18.40;99.90;;;;;;6369205;22;20018;-90
2022/07/08 19:45:43;;;;;;;3.13;0.85;;;18.40;99.90;;;;;;6343123;22;20427;-90
2022/07/08 19:48:08;;;;;;;2.90;0.90;;;18.40;99.90;;;;;;6368987;22;20014;-91
2022/07/08 19:50:34;;;;;;;2.72;0.60;;;18.30;99.90;;;;;;6342589;22;20011;-91
2022/07/08 19:53:01;;;;;;;2.58;0.80;;;18.30;99.90;;;;;;6342823;22;20042;-94
2022/07/08 19:55:29;;;;;;;1.75;0.77;;;18.20;99.90;;;;;;6343719;22;20011;-94
2022/07/08 19:57:55;;;;;;;2.67;0.88;;;18.20;99.90;;;;;;6342512;22;20018;-89
2022/07/08 20:01:18;;;;;;;2.10;0.75;;;18.20;99.90;;;;;;6370089;22;20018;-91
2022/07/08 20:04:09;;;;;;;2.08;0.80;;;18.20;99.90;;;;;;6344415;22;20492;-92
2022/07/08 20:06:43;;;;;;;4.18;0.90;;;18.10;99.90;;;;;;6345805;22;20041;-90
2022/07/08 20:31:01;;;;;;;3.47;1.30;;;17.90;99.90;;;;;;6380389;22;20022;-91
2022/07/08 20:33:27;;;;;;;4.25;1.20;;;17.90;99.90;;;;;;6346829;22;20026;-93
2022/07/08 20:35:55;;;;;;;4.53;1.42;;;17.80;99.90;;;;;;6344791;22;20022;-94
2022/07/08 20:38:26;;;;;;;4.38;1.30;;;17.80;99.90;;;;;;6344286;22;20010;-94
2022/07/08 20:43:52;;;;;;;3.38;1.02;;;17.80;99.90;;;;;;6370347;22;20064;-95
2022/07/08 20:46:53;;;;;;;3.08;1.13;;;17.80;99.90;;;;;;6368895;22;20038;-94
2022/07/08 20:49:42;;;;;;;4.07;1.60;;;17.80;99.90;;;;;;6370441;22;20028;-94
2022/07/08 20:52:08;;;;;;;4.15;1.88;;;17.70;99.90;;;;;;6342196;22;20010;-95
2022/07/08 21:02:37;;;;;;;3.25;1.60;;;17.60;99.90;;;;;;6276303;22;20019;-91
2022/07/08 21:05:20;;;;;;;4.13;1.48;;;17.60;99.90;;;;;;6182488;23;20034;-88
2022/07/08 21:11:12;;;;;;;3.58;1.60;;;17.50;99.90;;;;;;6221250;23;20016;-89
2022/07/08 21:13:44;;;;;;;3.90;1.30;;;17.40;99.90;;;;;;6195503;23;20468;-92
2022/07/08 21:16:28;;;;;;;3.88;1.50;;;17.40;99.90;;;;;;6224180;23;20013;-89
2022/07/08 21:18:54;;;;;;;3.38;1.48;;;17.40;99.90;;;;;;6220514;23;20054;-90
2022/07/08 21:21:20;;;;;;;3.47;1.42;;;17.30;99.90;;;;;;6195132;23;20016;-90
2022/07/08 21:23:46;;;;;;;4.43;1.50;;;17.30;99.90;;;;;;6195465;23;20044;-90
2022/07/08 21:26:12;;;;;;;3.53;1.88;;;17.20;99.90;;;;;;6219420;23;20016;-89
2022/07/08 21:29:17;;;;;;;2.78;1.40;;;17.20;99.90;;;;;;6195109;23;20009;-89
2022/07/08 21:35:16;;;;;;;5.30;1.98;;;17.10;99.90;;;;;;6327204;22;20022;-90
2022/07/08 21:40:30;;;;;;;4.45;2.08;;;17.00;99.90;;;;;;6321307;22;20023;-90
2022/07/08 21:42:55;;;;;;;3.60;1.55;;;17.00;99.90;;;;;;6255973;22;20015;-90
2022/07/08 21:45:21;;;;;;;3.88;1.90;;;17.00;99.90;;;;;;6256016;22;20022;-91
2022/07/08 21:47:47;;;;;;;2.92;1.58;;;17.00;99.90;;;;;;6256874;22;20026;-88
2022/07/08 21:50:13;;;;;;;5.28;1.90;;;16.90;99.90;;;;;;6256096;22;20022;-91
2022/07/08 21:52:39;;;;;;;4.15;1.70;;;16.90;99.90;;;;;;6281327;22;20015;-89
2022/07/08 21:55:05;;;;;;;3.53;1.50;;;16.90;99.90;;;;;;6255846;22;20015;-91
2022/07/08 21:57:31;;;;;;;;;;;16.90;99.90;;;;;;6256047;22;20436;-93
2022/07/08 21:59:57;;;;;;;4.10;1.75;;;16.90;99.90;;;;;;6255724;22;19921;-90
2022/07/08 22:02:23;;;;;;;4.32;1.80;;;16.90;99.90;;;;;;6255922;22;20015;-90
2022/07/08 22:04:49;;;;;;;3.90;1.48;;;16.80;99.90;;;;;;6255857;22;20054;-89
2022/07/08 22:07:15;;;;;;;4.85;1.60;;;16.80;99.90;;;;;;6255880;22;20018;-90
2022/07/08 22:09:40;;;;;;;4.85;1.67;;;16.80;99.90;;;;;;6255400;22;20023;-91
2022/07/08 22:12:06;;;;;;;3.95;1.60;;;16.80;99.90;;;;;;6254145;22;20017;-90
2022/07/08 22:14:32;;;;;;;5.22;2.13;;;16.70;99.90;;;;;;6254524;22;20019;-90
2022/07/08 22:16:58;;;;;;;3.50;1.65;;;16.70;99.90;;;;;;6255211;22;20022;-89
2022/07/08 22:19:25;;;;;;;4.80;2.00;;;16.70;99.90;;;;;;6255388;22;20019;-89
2022/07/08 22:21:50;;;;;;;3.92;1.92;;;16.70;99.90;;;;;;6255170;22;20022;-91
2022/07/08 22:24:18;;;;;;;3.65;1.70;;;16.70;99.90;;;;;;6255541;22;20015;-89
2022/07/08 22:26:44;;;;;;;4.20;1.77;;;16.70;99.90;;;;;;6255440;22;20015;-90
2022/07/08 22:29:09;;;;;;;5.47;2.30;;;16.70;99.90;;;;;;6255511;22;20337;-91
2022/07/08 22:31:35;;;;;;;5.70;1.80;;;16.70;99.90;;;;;;6255602;22;20099;-90
2022/07/08 22:34:01;;;;;;;4.72;1.95;;;16.60;99.90;;;;;;6255486;22;20015;-90
2022/07/08 22:36:26;;;;;;;3.80;1.63;;;16.60;99.90;;;;;;6255362;22;20018;-91
2022/07/08 22:38:52;;;;;;;4.60;1.92;;;16.60;99.90;;;;;;6255739;22;20019;-90
2022/07/08 22:41:18;;;;;;;5.57;1.73;;;16.60;99.90;;;;;;6278739;22;20015;-91
2022/07/08 22:43:45;;;;;;;3.63;1.70;;;16.50;99.90;;;;;;6280843;22;20341;-90
2022/07/08 22:46:11;;;;;;;3.72;1.60;;;16.60;99.90;;;;;;6306856;22;20019;-89
2022/07/08 22:48:38;;;;;;;;;;;16.50;99.90;;;;;;6306895;22;20479;-92
2022/07/08 22:51:05;;;;;;;5.28;2.15;;;16.50;99.90;;;;;;6280746;22;19922;-90
2022/07/08 22:53:30;;;;;;;;;;;16.50;99.90;;;;;;6306904;22;20015;-91
2022/07/08 22:55:56;;;;;;;4.90;1.88;;;16.50;99.90;;;;;;6280593;22;19922;-89
2022/07/08 22:58:22;;;;;;;4.25;1.85;;;16.50;99.90;;;;;;6306862;22;20462;-92
2022/07/08 23:08:34;;;;;;;3.92;1.88;;;16.40;99.90;;;;;;6295061;22;20479;-90
2022/07/08 23:11:00;;;;;;;4.43;1.90;;;16.30;99.90;;;;;;6280598;22;20027;-89
2022/07/08 23:13:25;;;;;;;3.72;1.50;;;16.30;99.90;;;;;;6280386;22;20042;-89
2022/07/08 23:15:51;;;;;;;3.40;1.90;;;16.30;99.90;;;;;;6280659;22;20117;-88
2022/07/08 23:18:19;;;;;;;4.65;1.92;;;16.30;99.90;;;;;;6280598;22;20011;-89
2022/07/08 23:20:45;;;;;;;4.15;2.22;;;16.30;99.90;;;;;;6280612;22;20018;-89
2022/07/08 23:23:20;;;;;;;4.20;2.10;;;16.20;99.90;;;;;;6281697;22;20011;-91
2022/07/08 23:25:45;;;;;;;4.43;1.70;;;16.20;99.90;;;;;;6280717;22;20015;-90
2022/07/08 23:28:15;;;;;;;3.47;1.67;;;16.20;99.90;;;;;;6306658;22;20070;-91
2022/07/08 23:30:42;;;;;;;3.92;1.88;;;16.20;99.90;;;;;;6280734;22;20007;-90
2022/07/08 23:33:07;;;;;;;5.57;2.25;;;16.10;99.90;;;;;;6280686;22;20099;-91
2022/07/08 23:35:33;;;;;;;3.72;1.80;;;16.10;99.90;;;;;;6282253;22;20015;-91
2022/07/08 23:37:59;;;;;;;4.10;1.70;;;16.10;99.90;;;;;;6282966;22;20112;-90
2022/07/08 23:40:24;;;;;;;4.70;1.90;;;16.10;99.90;;;;;;6282734;22;20012;-90
2022/07/08 23:42:50;;;;;;;4.93;2.15;;;16.10;99.90;;;;;;6308423;22;20015;-90
2022/07/08 23:45:24;;;;;;;5.20;2.40;;;16.10;99.90;;;;;;6283657;22;20019;-91
2022/07/08 23:47:50;;;;;;;4.18;1.88;;;16.20;99.90;;;;;;6291100;22;20015;-91
2022/07/08 23:50:15;;;;;;;3.50;1.70;;;16.10;99.90;;;;;;6308564;22;20387;-90
2022/07/08 23:52:42;;;;;;;4.68;1.90;;;16.20;99.90;;;;;;6282710;22;20086;-92
2022/07/08 23:55:08;;;;;;;;;;;16.20;99.90;;;;;;6283105;22;20015;-91
2022/07/08 23:57:33;;;;;;;5.82;3.30;;;16.20;99.90;;;;;;6282785;22;19941;-91
2022/07/08 23:59:59;;;;;;;5.68;2.58;;;16.20;99.90;;;;;;6282454;22;20447;-91
